Time;durP1;ratioP1;P1;durP2;ratioP2;P2;SDS_P1;SDS_P2;PMS_P1;PMS_P2;Temp;Humidity;BMP_temperature;BMP_pressure;BME280_temperature;BME280_humidity;BME280_pressure;Samples;Min_cycle;Max_cycle;Signal;HPM_P1;HPM_P2
2023/07/13 00:01:16;;;;;;;4.27;3.90;;;16.40;99.90;;;;;;5054606;28;20194;-74
2023/07/13 00:03:42;;;;;;;4.20;3.80;;;16.40;99.90;;;;;;5072155;28;20245;-75
2023/07/13 00:06:08;;;;;;;5.23;3.83;;;16.40;99.90;;;;;;5072653;28;20232;-75
2023/07/13 00:08:35;;;;;;;7.47;3.70;;;16.30;99.90;;;;;;5072454;28;20192;-75
2023/07/13 00:11:02;;;;;;;4.50;4.10;;;16.30;99.90;;;;;;5076582;28;20201;-76
2023/07/13 00:13:29;;;;;;;4.27;3.97;;;16.20;99.90;;;;;;5092301;28;20704;-76
2023/07/13 00:15:55;;;;;;;5.43;3.80;;;16.30;99.90;;;;;;5078898;28;20265;-76
2023/07/13 00:18:21;;;;;;;5.53;4.17;;;16.30;99.90;;;;;;5054499;28;20228;-74
2023/07/13 00:20:47;;;;;;;4.57;4.23;;;16.20;99.90;;;;;;5072433;28;20198;-73
2023/07/13 00:23:13;;;;;;;7.90;4.13;;;16.20;99.90;;;;;;5071916;28;20258;-74
2023/07/13 00:25:38;;;;;;;5.00;4.00;;;16.20;99.90;;;;;;5054116;28;20615;-75
2023/07/13 00:28:04;;;;;;;4.50;4.20;;;16.10;99.90;;;;;;5054360;28;20182;-74
2023/07/13 00:30:30;;;;;;;4.97;4.53;;;16.10;99.90;;;;;;5054191;28;20194;-74
2023/07/13 00:32:55;;;;;;;5.03;4.37;;;16.10;99.90;;;;;;5055261;28;20235;-74
2023/07/13 00:35:21;;;;;;;5.60;4.77;;;16.10;99.90;;;;;;5071996;28;20182;-75
2023/07/13 00:37:46;;;;;;;4.20;3.80;;;16.10;99.90;;;;;;5071837;28;20209;-75
2023/07/13 00:40:14;;;;;;;10.00;4.20;;;16.10;99.90;;;;;;5071919;28;20233;-75
2023/07/13 00:42:41;;;;;;;4.03;3.63;;;16.10;99.90;;;;;;5072732;28;20173;-75
2023/07/13 00:45:12;;;;;;;4.13;3.70;;;16.00;99.90;;;;;;5085087;28;20178;-75
2023/07/13 00:47:38;;;;;;;4.30;4.00;;;16.00;99.90;;;;;;5053864;28;20197;-75
2023/07/13 00:50:10;;;;;;;7.07;5.30;;;15.90;99.90;;;;;;5071838;28;20198;-75
2023/07/13 00:52:37;;;;;;;4.87;4.47;;;15.90;99.90;;;;;;5071478;28;20182;-75
2023/07/13 00:55:04;;;;;;;5.53;5.07;;;15.90;99.90;;;;;;5053759;28;20201;-76
2023/07/13 00:57:29;;;;;;;5.20;3.93;;;15.80;99.90;;;;;;5080423;28;20236;-74
2023/07/13 00:59:58;;;;;;;3.97;3.67;;;15.80;99.90;;;;;;5071837;28;20232;-75
2023/07/13 01:02:25;;;;;;;4.50;4.20;;;15.80;99.90;;;;;;5091780;28;20581;-75
2023/07/13 01:04:51;;;;;;;4.70;3.80;;;15.80;99.90;;;;;;5055267;28;20209;-74
2023/07/13 01:07:17;;;;;;;4.30;3.90;;;15.80;99.90;;;;;;5072615;28;20661;-74
2023/07/13 01:09:44;;;;;;;4.70;4.50;;;15.80;99.90;;;;;;5071941;28;20208;-75
2023/07/13 01:12:11;;;;;;;6.70;4.23;;;15.80;99.90;;;;;;5071586;28;20249;-75
2023/07/13 01:14:37;;;;;;;5.03;4.07;;;15.80;99.90;;;;;;5071204;28;20200;-75
2023/07/13 01:17:03;;;;;;;4.20;3.90;;;15.80;99.90;;;;;;5071436;28;20245;-75
2023/07/13 01:19:39;;;;;;;9.60;4.63;;;15.80;99.90;;;;;;5072409;28;20228;-75
2023/07/13 01:22:08;;;;;;;4.37;3.77;;;15.80;99.90;;;;;;5071712;28;20204;-76
2023/07/13 01:24:36;;;;;;;4.00;3.70;;;15.80;99.90;;;;;;5071192;28;20170;-76
2023/07/13 01:27:02;;;;;;;6.57;4.07;;;15.80;99.90;;;;;;5071322;28;20253;-75
2023/07/13 01:29:28;;;;;;;6.77;4.20;;;15.70;99.90;;;;;;5071199;28;20201;-75
2023/07/13 01:31:53;;;;;;;4.53;4.13;;;15.70;99.90;;;;;;5071232;28;20178;-76
2023/07/13 01:34:19;;;;;;;5.23;4.10;;;15.60;99.90;;;;;;5071152;28;20170;-75
2023/07/13 01:36:44;;;;;;;5.00;4.60;;;15.70;99.90;;;;;;5072266;28;20180;-75
2023/07/13 01:39:10;;;;;;;4.27;3.93;;;15.60;99.90;;;;;;5071248;28;20210;-76
2023/07/13 01:41:35;;;;;;;4.83;4.43;;;15.60;99.90;;;;;;5071131;28;20249;-76
2023/07/13 01:44:01;;;;;;;5.00;4.50;;;15.60;99.90;;;;;;5070938;28;20190;-76
2023/07/13 01:46:27;;;;;;;6.87;4.43;;;15.50;99.90;;;;;;5071158;28;20209;-76
2023/07/13 01:48:52;;;;;;;6.63;4.80;;;15.50;99.90;;;;;;5071063;28;20170;-75
2023/07/13 01:51:19;;;;;;;4.80;4.40;;;15.50;99.90;;;;;;5071098;28;20349;-75
2023/07/13 01:53:45;;;;;;;10.97;5.43;;;15.40;99.90;;;;;;5071789;28;20520;-75
2023/07/13 01:56:11;;;;;;;7.17;6.67;;;15.40;99.90;;;;;;5071078;28;20186;-76
2023/07/13 01:58:36;;;;;;;5.13;4.73;;;15.40;99.90;;;;;;5070914;28;20214;-76
2023/07/13 02:01:02;;;;;;;4.93;4.20;;;15.40;99.90;;;;;;5053237;28;20204;-75
2023/07/13 02:03:27;;;;;;;5.23;4.53;;;15.40;99.90;;;;;;5070793;28;20185;-76
2023/07/13 02:05:53;;;;;;;7.73;5.10;;;15.30;99.90;;;;;;5052932;28;20621;-76
2023/07/13 02:08:19;;;;;;;5.43;5.03;;;15.30;99.90;;;;;;5071058;28;20243;-76
2023/07/13 02:10:44;;;;;;;8.43;7.93;;;15.30;99.90;;;;;;5072327;28;20273;-75
2023/07/13 02:13:10;;;;;;;5.63;5.23;;;15.30;99.90;;;;;;5074375;28;20633;-76
2023/07/13 02:15:39;;;;;;;6.77;5.27;;;15.30;99.90;;;;;;5074572;28;20178;-76
2023/07/13 02:18:05;;;;;;;5.23;4.77;;;15.30;99.90;;;;;;5074865;28;20178;-75
2023/07/13 02:20:30;;;;;;;8.07;4.67;;;15.30;99.90;;;;;;5074682;28;20537;-75
2023/07/13 02:22:56;;;;;;;5.43;4.93;;;15.30;99.90;;;;;;5074572;28;20209;-75
2023/07/13 02:25:21;;;;;;;4.97;4.47;;;15.20;99.90;;;;;;5074526;28;20182;-75
2023/07/13 02:27:47;;;;;;;5.77;5.37;;;15.20;99.90;;;;;;5056307;28;20241;-75
2023/07/13 02:30:13;;;;;;;6.03;5.47;;;15.20;99.90;;;;;;5075447;28;20205;-76
2023/07/13 02:32:39;;;;;;;7.37;6.67;;;15.20;99.90;;;;;;5074107;28;20543;-75
2023/07/13 02:35:05;;;;;;;6.30;5.37;;;15.10;99.90;;;;;;5074624;28;20181;-75
2023/07/13 02:37:31;;;;;;;8.50;5.00;;;15.10;99.90;;;;;;5074184;28;20185;-76
2023/07/13 02:39:57;;;;;;;5.40;5.00;;;15.10;99.90;;;;;;5074356;28;20281;-76
2023/07/13 02:42:22;;;;;;;5.07;4.60;;;15.10;99.90;;;;;;5074291;28;20265;-76
2023/07/13 02:44:49;;;;;;;6.80;4.33;;;15.00;99.90;;;;;;5074180;28;20182;-76
2023/07/13 02:47:15;;;;;;;4.13;3.73;;;15.00;99.90;;;;;;5075153;28;20194;-75
2023/07/13 02:49:40;;;;;;;4.30;3.90;;;15.00;99.90;;;;;;5055833;28;20285;-76
2023/07/13 02:52:06;;;;;;;4.63;4.23;;;15.00;99.90;;;;;;5074553;28;20618;-76
2023/07/13 02:54:32;;;;;;;5.37;4.43;;;15.00;99.90;;;;;;5075768;28;20177;-76
2023/07/13 02:56:58;;;;;;;4.17;3.87;;;15.00;99.90;;;;;;5093997;28;20169;-75
2023/07/13 02:59:23;;;;;;;6.73;4.50;;;15.00;99.90;;;;;;5094337;28;20177;-74
2023/07/13 03:01:49;;;;;;;4.47;4.00;;;15.00;99.90;;;;;;5094259;28;20632;-75
2023/07/13 03:04:16;;;;;;;4.87;4.37;;;15.00;99.90;;;;;;5092181;28;20238;-75
2023/07/13 03:06:41;;;;;;;5.13;4.63;;;15.00;99.90;;;;;;5075742;28;20205;-75
2023/07/13 03:09:07;;;;;;;4.40;4.10;;;15.00;99.90;;;;;;5093933;28;20512;-75
2023/07/13 03:11:33;;;;;;;4.00;3.70;;;15.00;99.90;;;;;;5075496;28;20181;-75
2023/07/13 03:13:59;;;;;;;4.07;3.60;;;15.10;99.90;;;;;;5093623;28;20161;-75
2023/07/13 03:16:24;;;;;;;7.73;3.97;;;15.00;99.90;;;;;;5093879;28;20178;-75
2023/07/13 03:18:50;;;;;;;4.13;3.73;;;15.00;99.90;;;;;;5106461;28;20182;-77
2023/07/13 03:21:16;;;;;;;6.43;4.00;;;15.00;99.90;;;;;;5094783;28;20239;-78
2023/07/13 03:23:43;;;;;;;4.00;3.70;;;14.90;99.90;;;;;;5093610;28;20182;-79
2023/07/13 03:26:16;;;;;;;8.80;4.23;;;14.90;99.90;;;;;;5076818;28;20212;-78
2023/07/13 03:28:42;;;;;;;4.33;3.93;;;14.90;99.90;;;;;;5077316;28;20231;-78
2023/07/13 03:31:20;;;;;;;4.23;3.83;;;14.80;99.90;;;;;;5092830;28;20182;-78
2023/07/13 03:33:46;;;;;;;4.80;4.50;;;14.80;99.90;;;;;;5094745;28;20166;-78
2023/07/13 03:36:22;;;;;;;5.90;3.97;;;14.80;99.90;;;;;;5095338;28;20173;-78
2023/07/13 03:38:49;;;;;;;4.57;4.17;;;14.80;99.90;;;;;;5085100;28;20218;-76
2023/07/13 03:41:16;;;;;;;5.20;3.90;;;14.80;99.90;;;;;;5074522;28;20246;-77
2023/07/13 03:43:42;;;;;;;4.70;4.30;;;14.80;99.90;;;;;;5092814;28;20667;-76
2023/07/13 03:46:08;;;;;;;4.50;4.10;;;14.90;99.90;;;;;;5093227;28;20189;-77
2023/07/13 03:48:33;;;;;;;4.30;4.00;;;14.80;99.90;;;;;;5093235;28;20177;-76
2023/07/13 03:50:59;;;;;;;5.20;4.07;;;14.80;99.90;;;;;;5092960;28;20326;-75
2023/07/13 03:53:25;;;;;;;5.23;4.80;;;14.80;99.90;;;;;;5091057;28;20176;-76
2023/07/13 03:55:51;;;;;;;4.87;4.37;;;14.90;99.90;;;;;;5092754;28;20178;-76
2023/07/13 03:58:32;;;;;;;5.70;4.00;;;14.90;99.90;;;;;;5093088;28;20231;-76
2023/07/13 04:00:59;;;;;;;5.00;4.60;;;14.90;99.90;;;;;;5093004;28;20213;-75
2023/07/13 04:03:28;;;;;;;5.50;5.10;;;15.00;99.90;;;;;;5092646;28;20266;-75
2023/07/13 04:05:59;;;;;;;5.63;4.67;;;15.00;99.90;;;;;;5074570;28;20201;-75
2023/07/13 04:08:28;;;;;;;8.20;4.43;;;15.10;99.90;;;;;;5092968;28;20166;-75
2023/07/13 04:10:54;;;;;;;7.77;4.20;;;15.10;99.90;;;;;;5090655;28;20700;-75
2023/07/13 04:13:20;;;;;;;4.70;4.07;;;15.10;99.90;;;;;;5092513;28;20205;-75
2023/07/13 04:15:46;;;;;;;6.57;4.00;;;15.20;99.90;;;;;;5092464;28;20251;-75
2023/07/13 04:18:11;;;;;;;7.27;4.10;;;15.20;99.90;;;;;;5074491;28;20169;-75
2023/07/13 04:20:37;;;;;;;4.47;3.87;;;15.20;99.90;;;;;;5092547;28;20266;-75
2023/07/13 04:23:02;;;;;;;4.33;4.03;;;15.30;99.90;;;;;;5092385;28;20192;-75
2023/07/13 04:25:28;;;;;;;5.40;4.60;;;15.30;99.90;;;;;;5092460;28;20215;-75
2023/07/13 04:27:54;;;;;;;7.03;4.10;;;15.30;99.90;;;;;;5090343;28;20634;-76
2023/07/13 04:30:20;;;;;;;6.43;4.37;;;15.40;99.90;;;;;;5092479;28;20288;-76
2023/07/13 04:32:46;;;;;;;4.83;4.43;;;15.50;99.90;;;;;;5092166;28;20252;-75
2023/07/13 04:35:14;;;;;;;7.47;4.23;;;15.50;99.90;;;;;;5091522;28;20582;-76
2023/07/13 04:37:40;;;;;;;8.97;4.50;;;15.50;99.90;;;;;;5092205;28;20633;-77
2023/07/13 04:40:06;;;;;;;5.87;4.50;;;15.60;99.90;;;;;;5092198;28;20601;-76
2023/07/13 04:42:34;;;;;;;3.77;3.57;;;15.70;99.90;;;;;;5091924;28;20236;-76
2023/07/13 04:44:59;;;;;;;4.67;3.80;;;15.70;99.90;;;;;;5090425;28;20176;-76
2023/07/13 04:47:25;;;;;;;4.07;3.77;;;15.80;99.90;;;;;;5092065;28;20283;-76
2023/07/13 04:49:51;;;;;;;4.70;4.20;;;15.90;99.90;;;;;;5091834;28;20185;-76
2023/07/13 04:52:16;;;;;;;5.23;4.63;;;16.00;99.90;;;;;;5091948;28;20173;-76
2023/07/13 04:54:42;;;;;;;4.77;4.47;;;16.10;99.90;;;;;;5091637;28;20181;-76
2023/07/13 04:57:08;;;;;;;5.20;4.77;;;16.10;99.90;;;;;;5092142;28;20166;-76
2023/07/13 04:59:33;;;;;;;6.67;4.23;;;16.30;99.90;;;;;;5092081;28;20189;-76
2023/07/13 05:01:59;;;;;;;5.27;4.50;;;16.40;99.90;;;;;;5081571;28;20182;-76
2023/07/13 05:04:25;;;;;;;3.73;3.53;;;16.50;99.90;;;;;;5071561;28;20174;-76
2023/07/13 05:06:51;;;;;;;5.43;4.80;;;16.80;99.90;;;;;;5071477;28;20543;-75
2023/07/13 05:09:16;;;;;;;5.67;4.33;;;17.00;99.90;;;;;;5071566;28;20195;-76
2023/07/13 05:11:43;;;;;;;4.17;3.70;;;17.30;99.90;;;;;;5071434;28;20176;-75
2023/07/13 05:14:09;;;;;;;6.67;4.80;;;17.50;99.90;;;;;;5071264;28;20581;-76
2023/07/13 05:16:35;;;;;;;9.07;5.77;;;17.70;99.90;;;;;;5072597;28;20173;-76
2023/07/13 05:19:01;;;;;;;7.83;7.30;;;17.90;99.90;;;;;;5071765;28;20533;-75
2023/07/13 05:21:26;;;;;;;6.03;5.00;;;18.20;99.90;;;;;;5071302;28;20264;-75
2023/07/13 05:23:52;;;;;;;6.43;5.80;;;18.40;99.90;;;;;;5052948;28;20725;-75
2023/07/13 05:26:18;;;;;;;8.00;5.23;;;18.60;99.90;;;;;;5071366;28;20703;-76
2023/07/13 05:28:43;;;;;;;6.55;4.50;;;18.70;99.90;;;;;;5071354;28;20280;-75
2023/07/13 05:31:10;;;;;;;4.03;3.60;;;18.90;99.90;;;;;;5071437;28;20601;-76
2023/07/13 05:33:35;;;;;;;6.70;3.70;;;18.80;99.90;;;;;;5056887;28;20177;-75
2023/07/13 05:36:01;;;;;;;7.60;3.60;;;18.80;99.90;;;;;;5091514;28;20510;-74
2023/07/13 05:38:27;;;;;;;7.47;4.20;;;18.70;99.90;;;;;;5091571;28;20206;-77
2023/07/13 05:40:55;;;;;;;5.57;4.10;;;18.60;99.90;;;;;;5091264;28;20181;-76
2023/07/13 05:43:21;;;;;;;6.63;5.03;;;18.70;99.90;;;;;;5073005;28;20284;-75
2023/07/13 05:45:47;;;;;;;4.80;4.40;;;18.90;99.90;;;;;;5092721;28;20219;-77
2023/07/13 05:48:12;;;;;;;5.87;4.23;;;19.10;99.90;;;;;;5095620;28;20680;-74
2023/07/13 05:50:38;;;;;;;7.10;4.27;;;19.30;99.90;;;;;;5082107;28;20281;-76
2023/07/13 05:53:04;;;;;;;6.13;3.60;;;19.20;99.90;;;;;;5074826;28;20212;-76
2023/07/13 05:55:30;;;;;;;6.43;4.40;;;19.20;99.90;;;;;;5075052;28;20255;-75
2023/07/13 05:57:57;;;;;;;5.73;3.93;;;19.20;99.90;;;;;;5074836;28;20178;-75
2023/07/13 06:00:24;;;;;;;7.83;3.93;;;19.10;99.90;;;;;;5075001;28;20186;-75
2023/07/13 06:02:49;;;;;;;7.10;3.73;;;19.10;99.90;;;;;;5074523;28;20257;-76
2023/07/13 06:05:15;;;;;;;9.53;8.60;;;18.80;99.90;;;;;;5075231;28;20273;-75
2023/07/13 06:07:41;;;;;;;6.37;5.77;;;18.70;99.90;;;;;;5086872;28;20704;-77
2023/07/13 06:10:07;;;;;;;4.50;4.20;;;18.70;99.90;;;;;;5095078;28;20250;-76
2023/07/13 06:12:33;;;;;;;4.23;3.60;;;18.80;99.90;;;;;;5094722;28;20195;-76
2023/07/13 06:14:58;;;;;;;5.47;3.63;;;19.10;99.90;;;;;;5094657;28;20244;-75
2023/07/13 06:17:24;;;;;;;5.90;3.70;;;19.10;99.90;;;;;;5095541;28;20640;-76
2023/07/13 06:19:50;;;;;;;4.30;3.90;;;19.20;99.90;;;;;;5095020;28;20189;-75
2023/07/13 06:22:15;;;;;;;8.93;4.53;;;19.30;99.90;;;;;;5094825;28;20655;-76
2023/07/13 06:24:41;;;;;;;5.43;3.80;;;19.40;99.90;;;;;;5093080;28;20177;-76
2023/07/13 06:27:07;;;;;;;6.70;4.20;;;19.50;99.90;;;;;;5094782;28;20280;-74
2023/07/13 06:29:32;;;;;;;6.03;4.30;;;19.50;99.90;;;;;;5094322;28;20656;-76
2023/07/13 06:31:58;;;;;;;7.53;3.67;;;19.70;99.90;;;;;;5094595;28;20177;-75
2023/07/13 06:34:23;;;;;;;6.80;4.00;;;19.90;99.90;;;;;;5094869;28;20260;-77
2023/07/13 06:36:49;;;;;;;4.85;4.38;;;20.20;99.90;;;;;;5088603;28;20514;-76
2023/07/13 06:39:14;;;;;;;4.88;4.10;;;20.60;99.90;;;;;;5075740;28;20181;-76
2023/07/13 06:41:40;;;;;;;4.03;3.63;;;21.10;99.90;;;;;;5094232;28;20275;-77
2023/07/13 06:44:06;;;;;;;4.45;3.58;;;21.60;99.90;;;;;;5076106;28;20234;-76
2023/07/13 06:46:32;;;;;;;4.75;4.20;;;21.90;99.90;;;;;;5094517;28;20250;-75
2023/07/13 06:48:57;;;;;;;4.80;3.90;;;22.00;99.90;;;;;;5094486;28;20166;-76
2023/07/13 06:51:23;;;;;;;6.10;5.45;;;22.20;99.90;;;;;;5092316;28;20186;-74
2023/07/13 06:53:49;;;;;;;7.35;5.40;;;21.80;99.90;;;;;;5093860;28;20174;-76
2023/07/13 06:56:15;;;;;;;6.35;5.57;;;21.40;99.90;;;;;;5095153;28;20276;-77
2023/07/13 06:58:41;;;;;;;9.25;4.70;;;21.40;99.90;;;;;;5084172;28;20340;-76
2023/07/13 07:01:06;;;;;;;7.00;5.10;;;21.20;99.90;;;;;;5055909;28;20293;-76
2023/07/13 07:03:32;;;;;;;4.00;3.63;;;21.10;99.90;;;;;;5073402;28;20220;-74
2023/07/13 07:06:16;;;;;;;5.47;4.43;;;20.90;99.90;;;;;;5073754;28;20185;-75
2023/07/13 07:08:42;;;;;;;7.63;4.13;;;20.70;99.90;;;;;;5074183;28;20177;-75
2023/07/13 07:11:11;;;;;;;6.97;4.25;;;20.60;99.90;;;;;;5076124;28;20190;-77
2023/07/13 07:13:38;;;;;;;6.03;4.28;;;20.50;99.90;;;;;;5076893;28;20198;-76
2023/07/13 07:16:03;;;;;;;5.23;4.20;;;20.60;99.90;;;;;;5076460;28;20707;-77
2023/07/13 07:18:29;;;;;;;7.22;4.43;;;20.50;99.90;;;;;;5075937;28;20660;-75
2023/07/13 07:20:54;;;;;;;6.93;3.83;;;20.30;99.90;;;;;;5074916;28;20232;-77
2023/07/13 07:23:20;;;;;;;5.93;4.30;;;20.20;99.90;;;;;;5075953;28;20217;-76
2023/07/13 07:25:46;;;;;;;7.80;4.07;;;20.20;99.90;;;;;;5058421;28;20206;-76
2023/07/13 07:28:14;;;;;;;9.73;4.90;;;20.20;99.90;;;;;;5074765;28;20296;-75
2023/07/13 07:30:44;;;;;;;7.83;4.97;;;20.20;99.90;;;;;;5078397;28;20198;-75
2023/07/13 07:33:09;;;;;;;7.40;4.97;;;20.20;99.90;;;;;;5081063;28;20166;-75
2023/07/13 07:35:35;;;;;;;4.72;4.05;;;20.00;99.90;;;;;;5093439;28;20197;-76
2023/07/13 07:38:01;;;;;;;5.57;4.70;;;19.80;99.90;;;;;;5093383;28;20264;-76
2023/07/13 07:40:26;;;;;;;5.23;4.60;;;19.80;99.90;;;;;;5093320;28;20706;-75
2023/07/13 07:42:52;;;;;;;7.50;4.37;;;19.70;99.90;;;;;;5092912;28;20169;-76
2023/07/13 07:45:18;;;;;;;5.38;4.90;;;19.80;99.90;;;;;;5093332;28;20234;-75
2023/07/13 07:47:44;;;;;;;5.57;4.80;;;19.90;99.90;;;;;;5092959;28;20201;-76
2023/07/13 07:50:10;;;;;;;6.50;5.57;;;19.80;99.90;;;;;;5093269;28;20280;-75
2023/07/13 07:52:35;;;;;;;6.45;3.80;;;19.90;99.90;;;;;;5093062;28;20578;-76
2023/07/13 07:55:01;;;;;;;5.40;4.95;;;20.10;99.90;;;;;;5084503;28;20656;-74
2023/07/13 07:57:27;;;;;;;6.07;3.50;;;20.40;99.90;;;;;;5072910;28;20182;-77
2023/07/13 07:59:52;;;;;;;4.10;3.45;;;20.40;99.90;;;;;;5072528;28;20244;-76
2023/07/13 08:02:18;;;;;;;8.25;4.10;;;20.40;99.90;;;;;;5059096;28;20589;-76
2023/07/13 08:04:43;;;;;;;7.32;4.40;;;20.60;99.90;;;;;;5092592;28;20188;-77
2023/07/13 08:07:09;;;;;;;5.28;3.88;;;20.90;99.90;;;;;;5092311;28;20216;-76
2023/07/13 08:09:35;;;;;;;5.00;4.30;;;21.10;99.90;;;;;;5091380;28;20189;-74
2023/07/13 08:12:00;;;;;;;5.47;4.57;;;21.30;99.90;;;;;;5079660;28;20225;-76
2023/07/13 08:14:26;;;;;;;4.57;4.15;;;21.40;99.90;;;;;;5086202;28;20635;-75
2023/07/13 08:16:51;;;;;;;7.47;4.18;;;21.40;99.90;;;;;;5092966;28;20204;-76
2023/07/13 08:19:17;;;;;;;7.00;3.97;;;21.50;99.90;;;;;;5092773;28;20173;-74
2023/07/13 08:21:43;;;;;;;5.70;4.80;;;21.90;99.90;;;;;;5092357;28;20256;-76
2023/07/13 08:24:09;;;;;;;10.90;6.88;;;22.00;99.90;;;;;;5074521;28;20184;-75
2023/07/13 08:26:34;;;;;;;8.57;5.30;;;21.70;99.90;;;;;;5072384;28;20198;-75
2023/07/13 08:29:00;;;;;;;5.47;4.57;;;21.50;99.90;;;;;;5072170;28;20173;-75
2023/07/13 08:31:26;;;;;;;7.07;4.75;;;21.50;99.90;;;;;;5072064;28;20198;-76
2023/07/13 08:33:51;;;;;;;7.07;6.45;;;21.60;99.90;;;;;;5071512;28;20166;-76
2023/07/13 08:36:17;;;;;;;8.15;7.45;;;21.80;99.90;;;;;;5089391;28;20189;-76
2023/07/13 08:38:42;;;;;;;6.68;5.72;;;21.70;99.90;;;;;;5092099;28;20172;-76
2023/07/13 08:41:15;;;;;;;8.75;6.47;;;21.60;99.90;;;;;;5091633;28;20197;-75
2023/07/13 08:43:41;;;;;;;9.73;8.60;;;21.70;99.90;;;;;;5091999;28;20240;-76
2023/07/13 08:46:17;;;;;;;8.25;7.45;;;21.70;99.90;;;;;;5091914;28;20172;-75
2023/07/13 08:48:53;;;;;;;5.35;4.93;;;21.80;99.90;;;;;;5090469;28;20203;-74
2023/07/13 08:51:43;;;;;;;6.40;5.90;;;21.70;99.90;;;;;;5091979;28;20189;-76
2023/07/13 08:54:21;;;;;;;5.70;3.88;;;21.70;99.90;;;;;;5091693;28;20168;-72
2023/07/13 08:56:52;;;;;;;7.40;4.07;;;21.90;99.90;;;;;;5091823;28;20184;-76
2023/07/13 08:59:22;;;;;;;7.85;4.78;;;21.90;99.90;;;;;;5092035;28;20169;-75
2023/07/13 09:02:09;;;;;;;5.00;4.60;;;21.90;99.90;;;;;;5091668;28;20195;-74
2023/07/13 09:04:40;;;;;;;7.38;4.03;;;22.00;99.90;;;;;;5073305;28;20324;-74
2023/07/13 09:07:09;;;;;;;7.93;5.38;;;22.00;99.90;;;;;;5091754;28;20201;-74
2023/07/13 09:10:02;;;;;;;5.63;4.85;;;22.20;99.90;;;;;;5091645;28;20224;-74
2023/07/13 09:13:01;;;;;;;7.45;3.58;;;22.50;99.90;;;;;;5086476;28;20276;-75
2023/07/13 09:15:34;;;;;;;4.70;3.10;;;22.70;99.90;;;;;;5071675;28;20540;-75
2023/07/13 09:18:31;;;;;;;4.63;3.33;;;22.80;99.90;;;;;;5088616;28;20182;-75
2023/07/13 09:21:07;;;;;;;7.95;3.15;;;22.90;99.90;;;;;;5090236;28;20691;-74
2023/07/13 09:23:35;;;;;;;4.13;3.63;;;23.20;99.90;;;;;;5072408;28;20576;-73
2023/07/13 09:26:10;;;;;;;5.15;3.67;;;23.30;99.90;;;;;;5073192;28;20174;-72
2023/07/13 09:28:43;;;;;;;3.10;2.90;;;23.40;99.90;;;;;;5081011;28;20173;-72
2023/07/13 09:31:24;;;;;;;4.55;4.07;;;23.40;99.90;;;;;;5079273;28;20273;-74
2023/07/13 09:33:50;;;;;;;8.07;4.30;;;23.40;99.90;;;;;;5081385;28;20754;-73
2023/07/13 09:36:21;;;;;;;6.95;3.67;;;23.30;99.90;;;;;;5073562;28;20650;-73
2023/07/13 09:38:49;;;;;;;6.47;4.07;;;23.30;99.90;;;;;;5076166;28;20177;-72
2023/07/13 09:41:31;;;;;;;4.40;3.75;;;23.50;99.90;;;;;;5077947;28;20555;-73
2023/07/13 09:44:17;;;;;;;8.25;4.45;;;23.40;99.90;;;;;;5072660;28;20251;-73
2023/07/13 09:46:46;;;;;;;3.60;3.30;;;23.60;99.90;;;;;;5091518;28;20216;-72
2023/07/13 09:49:12;;;;;;;4.50;3.33;;;23.70;99.90;;;;;;5091352;28;20230;-74
2023/07/13 09:51:40;;;;;;;6.15;3.75;;;23.60;99.90;;;;;;5091062;28;20666;-74
2023/07/13 09:54:17;;;;;;;3.70;3.17;;;23.60;99.90;;;;;;5080674;28;20177;-73
2023/07/13 09:56:42;;;;;;;3.90;3.40;;;23.40;99.90;;;;;;5074677;28;20189;-72
2023/07/13 09:59:19;;;;;;;7.82;3.38;;;23.20;99.90;;;;;;5083726;28;20178;-72
2023/07/13 10:01:45;;;;;;;3.47;3.15;;;23.40;99.90;;;;;;5082911;28;20185;-73
2023/07/13 10:04:16;;;;;;;4.97;3.15;;;23.70;99.90;;;;;;5077839;28;20231;-74
2023/07/13 10:06:42;;;;;;;7.07;3.38;;;23.80;99.90;;;;;;5090960;28;20258;-72
2023/07/13 10:09:09;;;;;;;4.78;3.30;;;23.70;99.90;;;;;;5091079;28;20587;-72
2023/07/13 10:11:37;;;;;;;4.28;3.55;;;23.40;99.90;;;;;;5091043;28;20198;-71
2023/07/13 10:14:18;;;;;;;10.18;3.97;;;23.50;99.90;;;;;;5090032;28;20162;-72
2023/07/13 10:16:45;;;;;;;8.23;3.60;;;23.50;99.90;;;;;;5090894;28;20175;-73
2023/07/13 10:19:15;;;;;;;5.88;3.50;;;23.80;99.90;;;;;;5091015;28;20177;-73
2023/07/13 10:21:54;;;;;;;3.70;3.40;;;24.30;99.90;;;;;;5072648;28;20177;-72
2023/07/13 10:24:31;;;;;;;6.07;3.00;;;24.60;99.90;;;;;;5089286;28;20177;-73
2023/07/13 10:27:16;;;;;;;3.47;3.10;;;25.10;99.90;;;;;;5070137;28;20350;-72
2023/07/13 10:30:22;;;;;;;3.00;2.80;;;25.50;99.90;;;;;;5090690;28;20664;-73
2023/07/13 10:32:49;;;;;;;4.93;3.17;;;26.30;99.90;;;;;;5088424;28;20529;-72
2023/07/13 10:35:20;;;;;;;4.80;3.38;;;26.70;99.90;;;;;;5094573;28;20640;-71
2023/07/13 10:37:46;;;;;;;3.22;2.92;;;26.70;99.90;;;;;;5094075;28;20188;-73
2023/07/13 10:40:51;;;;;;;3.30;3.10;;;26.90;99.90;;;;;;5094516;28;20563;-73
2023/07/13 10:43:26;;;;;;;3.88;2.88;;;27.00;99.90;;;;;;5027648;28;20197;-73
2023/07/13 10:45:54;;;;;;;4.70;3.05;;;26.70;99.90;;;;;;5056117;28;20185;-72
2023/07/13 10:48:22;;;;;;;3.50;3.13;;;25.90;99.90;;;;;;5074100;28;20205;-72
2023/07/13 10:50:52;;;;;;;3.92;3.53;;;25.80;99.90;;;;;;5073861;28;20183;-70
2023/07/13 10:53:31;;;;;;;3.55;3.13;;;25.60;99.90;;;;;;5074938;28;20188;-72
2023/07/13 10:56:02;;;;;;;3.10;2.83;;;25.10;99.90;;;;;;5094085;28;20181;-72
2023/07/13 10:58:37;;;;;;;4.03;3.25;;;25.10;99.90;;;;;;5094014;28;20169;-71
2023/07/13 11:01:15;;;;;;;3.72;3.35;;;25.00;99.90;;;;;;5092806;28;20195;-72
2023/07/13 11:03:43;;;;;;;4.82;3.33;;;24.80;99.90;;;;;;5093694;28;20201;-72
2023/07/13 11:06:12;;;;;;;11.15;3.78;;;25.00;99.90;;;;;;5093925;28;20674;-72
2023/07/13 11:09:00;;;;;;;5.40;2.83;;;25.00;99.90;;;;;;5094124;28;20212;-72
2023/07/13 11:11:26;;;;;;;2.83;2.55;;;25.20;99.90;;;;;;5081117;28;20202;-71
2023/07/13 11:13:51;;;;;;;3.67;3.10;;;25.00;99.90;;;;;;5075469;28;20632;-72
2023/07/13 11:16:20;;;;;;;3.35;3.10;;;25.00;99.90;;;;;;5074800;28;20240;-71
2023/07/13 11:18:51;;;;;;;5.25;3.28;;;25.00;99.90;;;;;;5066848;28;20208;-73
2023/07/13 11:21:23;;;;;;;3.42;2.95;;;25.10;99.90;;;;;;5077382;28;20198;-74
2023/07/13 11:24:14;;;;;;;4.00;3.17;;;25.00;99.90;;;;;;5073986;28;20532;-71
2023/07/13 11:26:41;;;;;;;3.97;3.42;;;24.70;99.90;;;;;;5082923;28;20204;-71
2023/07/13 11:29:15;;;;;;;4.60;3.47;;;24.30;99.90;;;;;;5075513;28;20213;-71
2023/07/13 11:31:43;;;;;;;4.13;3.80;;;24.20;99.90;;;;;;5071497;28;20183;-72
2023/07/13 11:34:14;;;;;;;3.70;3.40;;;24.20;99.90;;;;;;5071071;28;20177;-72
2023/07/13 11:36:44;;;;;;;5.45;3.85;;;24.50;99.90;;;;;;5092758;28;20234;-72
2023/07/13 11:39:18;;;;;;;3.50;3.20;;;24.80;99.90;;;;;;5078328;28;20185;-72
2023/07/13 11:41:53;;;;;;;3.67;2.72;;;25.70;99.90;;;;;;5056085;28;20182;-72
2023/07/13 11:44:21;;;;;;;4.00;3.55;;;26.30;99.90;;;;;;5091568;28;20168;-71
2023/07/13 11:47:00;;;;;;;8.00;3.30;;;26.40;99.90;;;;;;5092735;28;20212;-72
2023/07/13 11:49:29;;;;;;;4.13;3.25;;;26.10;99.90;;;;;;5093449;28;20196;-72
2023/07/13 11:51:57;;;;;;;3.75;3.40;;;26.10;99.90;;;;;;5070710;28;20539;-71
2023/07/13 11:54:26;;;;;;;4.22;3.00;;;25.90;99.90;;;;;;5058621;28;20603;-71
2023/07/13 11:56:53;;;;;;;4.45;2.92;;;25.60;99.90;;;;;;5085014;28;20186;-72
2023/07/13 11:59:19;;;;;;;4.03;3.28;;;25.60;99.90;;;;;;5079703;28;20184;-73
2023/07/13 12:01:52;;;;;;;3.45;2.88;;;25.70;99.90;;;;;;5074220;28;20256;-73
2023/07/13 12:04:28;;;;;;;3.20;2.90;;;25.60;99.90;;;;;;5092712;28;20260;-72
2023/07/13 12:07:05;;;;;;;6.40;4.00;;;26.10;99.90;;;;;;5092406;28;20208;-71
2023/07/13 12:09:33;;;;;;;3.10;2.88;;;26.30;99.90;;;;;;5092795;28;20197;-72
2023/07/13 12:12:00;;;;;;;4.53;3.30;;;26.10;99.90;;;;;;5080945;28;20708;-72
2023/07/13 12:14:26;;;;;;;5.43;3.10;;;25.70;99.90;;;;;;5089512;28;20181;-73
2023/07/13 12:16:53;;;;;;;3.67;2.85;;;25.40;99.90;;;;;;5089034;28;20162;-72
2023/07/13 12:19:24;;;;;;;5.75;3.00;;;25.40;99.90;;;;;;5061167;28;20181;-72
2023/07/13 12:21:53;;;;;;;4.97;3.28;;;25.40;99.90;;;;;;5072537;28;20722;-72
2023/07/13 12:24:22;;;;;;;4.65;2.90;;;25.20;99.90;;;;;;5072696;28;20659;-72
2023/07/13 12:27:06;;;;;;;3.88;2.97;;;25.30;99.90;;;;;;5062998;28;20201;-71
2023/07/13 12:29:33;;;;;;;5.63;3.22;;;25.60;99.90;;;;;;5082321;28;20225;-72
2023/07/13 12:31:59;;;;;;;4.75;3.20;;;25.70;99.90;;;;;;5092363;28;20649;-72
2023/07/13 12:34:26;;;;;;;2.75;2.55;;;25.80;99.90;;;;;;5092015;28;20253;-71
2023/07/13 12:37:01;;;;;;;3.63;2.88;;;25.70;99.90;;;;;;5090337;28;20185;-71
2023/07/13 12:39:43;;;;;;;3.42;3.20;;;25.60;99.90;;;;;;5092499;28;20236;-73
2023/07/13 12:42:26;;;;;;;3.50;3.00;;;25.60;99.90;;;;;;5092481;28;20544;-71
2023/07/13 12:44:56;;;;;;;3.97;3.58;;;26.00;99.90;;;;;;5092171;28;20644;-71
2023/07/13 12:47:22;;;;;;;4.80;3.33;;;26.10;99.90;;;;;;5092123;28;20212;-73
2023/07/13 12:49:56;;;;;;;2.70;2.50;;;26.40;99.90;;;;;;5055682;28;20745;-72
2023/07/13 12:52:30;;;;;;;5.53;2.90;;;26.70;99.90;;;;;;5053729;28;20178;-73